Time;durP1;ratioP1;P1;durP2;ratioP2;P2;SDS_P1;SDS_P2;PMS_P1;PMS_P2;Temp;Humidity;BMP_temperature;BMP_pressure;BME280_temperature;BME280_humidity;BME280_pressure;Samples;Min_cycle;Max_cycle;Signal;HPM_P1;HPM_P2
2022/06/06 00:00:00;;;;;;;8.20;6.32;;;15.90;99.90;;;;;;4904580;29;20040;-83
2022/06/06 00:02:29;;;;;;;6.55;5.38;;;15.90;99.90;;;;;;4903263;29;20589;-83
2022/06/06 00:04:54;;;;;;;7.10;5.35;;;15.90;99.90;;;;;;4896375;29;20044;-83
2022/06/06 00:07:20;;;;;;;8.40;5.68;;;15.90;99.90;;;;;;4886487;29;20054;-83
2022/06/06 00:09:46;;;;;;;6.15;5.40;;;15.90;99.90;;;;;;4903407;29;20048;-83
2022/06/06 00:12:13;;;;;;;5.78;4.75;;;15.90;99.90;;;;;;4894027;29;20083;-82
2022/06/06 00:14:38;;;;;;;7.22;4.82;;;15.90;99.90;;;;;;4905238;29;20068;-82
2022/06/06 00:17:05;;;;;;;6.78;4.97;;;15.80;99.90;;;;;;4902659;29;20082;-82
2022/06/06 00:19:30;;;;;;;7.15;4.70;;;15.80;99.90;;;;;;4903220;29;20418;-82
2022/06/06 00:21:56;;;;;;;5.75;4.95;;;15.80;99.90;;;;;;4877094;29;20130;-82
2022/06/06 00:24:22;;;;;;;5.15;4.57;;;15.80;99.90;;;;;;4886899;29;20107;-82
2022/06/06 00:26:48;;;;;;;7.40;4.93;;;15.80;99.90;;;;;;4877358;29;20131;-82
2022/06/06 00:29:18;;;;;;;6.70;5.15;;;15.80;99.90;;;;;;4872298;29;20047;-82
2022/06/06 00:37:14;;;;;;;7.60;5.90;;;15.70;99.90;;;;;;4899850;29;20135;-81
2022/06/06 00:39:42;;;;;;;6.28;5.50;;;15.70;99.90;;;;;;4902362;29;20119;-82
2022/06/06 00:42:33;;;;;;;7.10;5.55;;;15.70;99.90;;;;;;4894823;29;20091;-81
2022/06/06 00:45:27;;;;;;;6.22;5.13;;;15.70;99.90;;;;;;4896210;29;20091;-81
2022/06/06 00:48:11;;;;;;;5.82;5.22;;;15.70;99.90;;;;;;4878078;29;20044;-81
2022/06/06 00:50:49;;;;;;;7.18;6.07;;;15.70;99.90;;;;;;4884665;29;20131;-81
2022/06/06 00:53:20;;;;;;;6.93;6.18;;;15.60;99.90;;;;;;4903395;29;20048;-82
2022/06/06 00:55:51;;;;;;;7.22;5.97;;;15.60;99.90;;;;;;4902235;29;20110;-81
2022/06/06 00:58:22;;;;;;;6.57;5.90;;;15.60;99.90;;;;;;4903818;29;20397;-82
2022/06/06 01:00:49;;;;;;;6.82;5.40;;;15.60;99.90;;;;;;4891051;29;20050;-81
2022/06/06 01:03:19;;;;;;;5.60;4.95;;;15.60;99.90;;;;;;4895850;29;20032;-81
2022/06/06 01:05:47;;;;;;;6.05;5.18;;;15.60;99.90;;;;;;4918693;29;20044;-81
2022/06/06 01:08:16;;;;;;;6.65;5.40;;;15.60;99.90;;;;;;4924111;29;20028;-81
2022/06/06 01:10:42;;;;;;;7.25;6.22;;;15.60;99.90;;;;;;4894082;29;20106;-82
2022/06/06 01:13:10;;;;;;;10.50;6.72;;;15.60;99.90;;;;;;4888622;29;20044;-82
2022/06/06 01:15:49;;;;;;;8.73;7.50;;;15.60;99.90;;;;;;4903778;29;20036;-81
2022/06/06 01:18:31;;;;;;;8.05;7.03;;;15.60;99.90;;;;;;4884218;29;20108;-82
2022/06/06 01:21:25;;;;;;;9.57;8.57;;;15.60;99.90;;;;;;4880654;29;20499;-82
2022/06/06 01:24:16;;;;;;;15.35;11.98;;;15.60;99.90;;;;;;4886429;29;20048;-81
2022/06/06 01:26:45;;;;;;;17.42;14.75;;;15.60;99.90;;;;;;4861495;29;20055;-81
2022/06/06 01:29:34;;;;;;;26.75;18.85;;;15.50;99.90;;;;;;4888798;29;20040;-82
2022/06/06 01:32:16;;;;;;;27.63;20.10;;;15.50;99.90;;;;;;4894197;29;20058;-82
2022/06/06 01:34:43;;;;;;;27.92;18.83;;;15.50;99.90;;;;;;4895798;29;20047;-81
2022/06/06 01:37:37;;;;;;;25.08;18.05;;;15.50;99.90;;;;;;4886711;29;20044;-81
2022/06/06 01:40:07;;;;;;;23.88;16.23;;;15.40;99.90;;;;;;4887389;29;20482;-82
2022/06/06 01:42:51;;;;;;;22.50;15.82;;;15.30;99.90;;;;;;4908922;29;20040;-82
2022/06/06 01:45:25;;;;;;;20.45;14.88;;;15.30;99.90;;;;;;4905623;29;20048;-82
2022/06/06 01:47:54;;;;;;;25.27;14.93;;;15.20;99.90;;;;;;4893077;29;20127;-82
2022/06/06 01:50:21;;;;;;;19.02;14.65;;;15.20;99.90;;;;;;4919416;29;20070;-82
2022/06/06 01:52:56;;;;;;;22.40;15.52;;;15.20;99.90;;;;;;4878619;29;20073;-82
2022/06/06 01:55:23;;;;;;;20.38;14.23;;;15.10;99.90;;;;;;4875199;29;20065;-82
2022/06/06 01:57:52;;;;;;;21.75;15.05;;;15.20;99.90;;;;;;4882040;29;20056;-84
2022/06/06 02:00:18;;;;;;;19.42;13.80;;;15.10;99.90;;;;;;4908257;29;20039;-81
2022/06/06 02:02:44;;;;;;;22.05;15.18;;;15.10;99.90;;;;;;4913057;29;20493;-81
2022/06/06 02:05:12;;;;;;;20.45;15.43;;;15.10;99.90;;;;;;4911503;29;20051;-81
2022/06/06 02:07:39;;;;;;;19.25;14.98;;;15.10;99.90;;;;;;4892708;29;20505;-81
2022/06/06 02:10:06;;;;;;;19.00;14.35;;;15.00;99.90;;;;;;4880308;29;20485;-82
2022/06/06 02:12:32;;;;;;;19.95;14.00;;;15.00;99.90;;;;;;4881921;29;20052;-82
2022/06/06 02:14:57;;;;;;;18.40;13.40;;;15.00;99.90;;;;;;4881503;29;20453;-82
2022/06/06 02:17:23;;;;;;;18.40;13.73;;;14.90;99.90;;;;;;4860605;29;20454;-82
2022/06/06 02:19:48;;;;;;;20.63;14.88;;;14.90;99.90;;;;;;4872882;29;20447;-82
2022/06/06 02:22:14;;;;;;;32.10;17.80;;;14.90;99.90;;;;;;4848068;29;20055;-82
2022/06/06 02:24:40;;;;;;;29.38;18.42;;;14.90;99.90;;;;;;4886938;29;20045;-82
2022/06/06 02:27:06;;;;;;;32.42;20.10;;;14.90;99.90;;;;;;4859731;29;20079;-82
2022/06/06 02:29:32;;;;;;;37.47;20.80;;;14.90;99.90;;;;;;4875969;29;20040;-82
2022/06/06 02:31:58;;;;;;;34.65;19.38;;;14.90;99.90;;;;;;4916788;29;20119;-82
2022/06/06 02:34:24;;;;;;;37.78;21.85;;;14.80;99.90;;;;;;4903068;29;20135;-82
2022/06/06 02:36:50;;;;;;;39.00;21.65;;;14.70;99.90;;;;;;4886802;29;20040;-82
2022/06/06 02:39:16;;;;;;;39.22;21.77;;;14.70;99.90;;;;;;4887292;29;20400;-82
2022/06/06 02:41:42;;;;;;;37.53;23.35;;;14.70;99.90;;;;;;4888233;29;20040;-82
2022/06/06 02:44:09;;;;;;;44.97;23.20;;;14.60;99.90;;;;;;4866454;29;20040;-81
2022/06/06 02:46:35;;;;;;;42.42;23.70;;;14.70;99.90;;;;;;4882872;29;20048;-82
2022/06/06 02:49:01;;;;;;;48.47;24.25;;;14.60;99.90;;;;;;4885921;29;20504;-82
2022/06/06 02:51:26;;;;;;;39.47;22.08;;;14.60;99.90;;;;;;4875631;29;20044;-82
2022/06/06 02:53:52;;;;;;;39.55;22.55;;;14.60;99.90;;;;;;4898147;29;20540;-83
2022/06/06 02:56:18;;;;;;;44.00;21.50;;;14.50;99.90;;;;;;4877588;29;20489;-82
2022/06/06 02:58:44;;;;;;;37.47;19.10;;;14.50;99.90;;;;;;4867411;29;20048;-82
2022/06/06 03:01:10;;;;;;;32.38;16.88;;;14.50;99.90;;;;;;4877825;29;20044;-82
2022/06/06 03:03:37;;;;;;;27.73;14.48;;;14.50;99.90;;;;;;4859175;29;20426;-82
2022/06/06 03:06:07;;;;;;;20.75;13.02;;;14.50;99.90;;;;;;4890545;29;20096;-82
2022/06/06 03:08:48;;;;;;;20.60;11.38;;;14.50;99.90;;;;;;4876252;29;20040;-82
2022/06/06 03:11:31;;;;;;;22.52;11.05;;;14.40;99.90;;;;;;4876161;29;20045;-82
2022/06/06 03:13:59;;;;;;;17.83;10.35;;;14.40;99.90;;;;;;4888141;29;20044;-82
2022/06/06 03:22:59;;;;;;;20.58;11.98;;;15.10;99.90;;;;;;4880317;29;20056;-82
2022/06/06 03:26:05;;;;;;;20.27;11.35;;;14.30;99.90;;;;;;4875061;29;20116;-82
2022/06/06 03:28:54;;;;;;;17.15;10.25;;;14.30;99.90;;;;;;4865364;29;20052;-81
2022/06/06 03:31:45;;;;;;;20.88;10.93;;;14.30;99.90;;;;;;4878725;29;20045;-82
2022/06/06 03:34:42;;;;;;;17.55;9.32;;;14.30;99.90;;;;;;4879716;29;20048;-83
2022/06/06 03:37:31;;;;;;;14.77;9.15;;;14.20;99.90;;;;;;4854864;29;20052;-82
2022/06/06 03:40:17;;;;;;;15.00;9.15;;;14.20;99.90;;;;;;4886487;29;20103;-83
2022/06/06 03:42:53;;;;;;;15.77;8.73;;;14.20;99.90;;;;;;4892708;29;20103;-82
2022/06/06 03:45:41;;;;;;;22.50;10.38;;;14.20;99.90;;;;;;4866388;29;20121;-83
2022/06/06 03:48:07;;;;;;;20.13;10.18;;;14.10;99.90;;;;;;4890958;29;20043;-82
2022/06/06 03:50:57;;;;;;;17.88;11.13;;;14.10;99.90;;;;;;4876850;29;20040;-82
2022/06/06 03:53:52;;;;;;;20.40;11.27;;;14.10;99.90;;;;;;4867182;29;20056;-82
2022/06/06 03:56:26;;;;;;;22.33;11.48;;;14.10;99.90;;;;;;4875596;29;20059;-82
2022/06/06 03:58:54;;;;;;;23.42;12.60;;;14.10;99.90;;;;;;4905952;29;20044;-82
2022/06/06 04:01:22;;;;;;;21.40;12.93;;;13.20;99.90;;;;;;4899457;29;20036;-82
2022/06/06 04:03:49;;;;;;;24.63;12.80;;;14.10;99.90;;;;;;4886401;29;20036;-82
2022/06/06 04:06:17;;;;;;;20.15;12.50;;;14.10;99.90;;;;;;4912176;29;20051;-82
2022/06/06 04:08:43;;;;;;;22.10;13.25;;;14.10;99.90;;;;;;4921903;29;20043;-83
2022/06/06 04:11:31;;;;;;;25.83;13.63;;;14.20;99.90;;;;;;4882291;29;20040;-82
2022/06/06 04:14:07;;;;;;;25.13;13.30;;;14.20;99.90;;;;;;4902803;29;20050;-82
2022/06/06 04:16:43;;;;;;;25.75;14.10;;;14.20;99.90;;;;;;4872627;29;20045;-82
2022/06/06 04:19:23;;;;;;;22.08;12.98;;;14.20;99.90;;;;;;4901493;29;20087;-83
2022/06/06 04:22:13;;;;;;;22.95;13.18;;;14.20;99.90;;;;;;4877064;29;20048;-82
2022/06/06 04:25:07;;;;;;;23.17;13.32;;;14.20;99.90;;;;;;4904893;29;20111;-82
2022/06/06 04:27:51;;;;;;;24.55;13.20;;;14.20;99.90;;;;;;4892582;29;20043;-82
2022/06/06 04:30:31;;;;;;;22.15;12.70;;;14.20;99.90;;;;;;4881826;29;20080;-82
2022/06/06 04:33:18;;;;;;;21.48;12.63;;;14.20;99.90;;;;;;4900534;29;20052;-83
2022/06/06 04:35:53;;;;;;;20.30;12.60;;;14.20;99.90;;;;;;4890810;29;20119;-82
2022/06/06 04:38:30;;;;;;;17.67;11.10;;;14.20;99.90;;;;;;4902013;29;20051;-82
2022/06/06 04:41:20;;;;;;;18.88;11.45;;;14.20;99.90;;;;;;4887279;29;20100;-83
2022/06/06 04:43:52;;;;;;;22.52;12.98;;;14.20;99.90;;;;;;4883084;29;20107;-83
2022/06/06 04:46:24;;;;;;;20.38;12.23;;;14.30;99.90;;;;;;4906614;29;20040;-82
2022/06/06 04:48:52;;;;;;;19.70;12.18;;;14.30;99.90;;;;;;4904327;29;20044;-82
2022/06/06 04:51:20;;;;;;;17.02;11.82;;;14.30;99.90;;;;;;4910384;29;20040;-82
2022/06/06 04:53:51;;;;;;;19.77;12.80;;;14.30;99.90;;;;;;4916971;29;20099;-82
2022/06/06 04:56:18;;;;;;;23.55;12.93;;;14.30;99.90;;;;;;4905133;29;20527;-83
2022/06/06 04:58:48;;;;;;;22.63;13.48;;;14.30;99.90;;;;;;4907186;29;20051;-82
2022/06/06 05:01:14;;;;;;;23.02;13.10;;;14.30;99.90;;;;;;4908149;29;20045;-83
2022/06/06 05:03:40;;;;;;;23.25;13.73;;;14.30;99.90;;;;;;4889486;29;20043;-82
2022/06/06 05:06:41;;;;;;;23.65;14.10;;;14.30;99.90;;;;;;4876986;29;20408;-82
2022/06/06 05:09:54;;;;;;;21.60;13.23;;;14.30;99.90;;;;;;4897442;29;20061;-83
2022/06/06 05:12:32;;;;;;;25.48;13.20;;;14.30;99.90;;;;;;4876369;29;20048;-83
2022/06/06 05:15:23;;;;;;;18.10;11.57;;;14.30;99.90;;;;;;4881241;29;20050;-83
2022/06/06 05:18:08;;;;;;;20.55;11.73;;;14.30;99.90;;;;;;4886926;29;20553;-83
2022/06/06 05:20:42;;;;;;;19.90;12.20;;;14.30;99.90;;;;;;4893724;29;20397;-82
2022/06/06 05:23:53;;;;;;;19.50;12.30;;;14.40;99.90;;;;;;4888336;29;20511;-83
2022/06/06 05:26:37;;;;;;;21.88;12.57;;;14.40;99.90;;;;;;4885289;29;20052;-82
2022/06/06 05:29:33;;;;;;;23.35;13.55;;;14.40;99.90;;;;;;4903404;29;20100;-82
2022/06/06 05:32:17;;;;;;;23.83;13.15;;;14.40;99.90;;;;;;4892859;29;20116;-83
2022/06/06 05:34:54;;;;;;;21.08;13.68;;;14.40;99.90;;;;;;4898095;29;20052;-83
2022/06/06 05:37:43;;;;;;;24.70;13.80;;;14.40;99.90;;;;;;4895356;29;20063;-83
2022/06/06 05:40:38;;;;;;;23.95;13.43;;;14.40;99.90;;;;;;4889040;29;20489;-82
2022/06/06 05:43:06;;;;;;;19.70;12.52;;;14.40;99.90;;;;;;4902049;29;20115;-83
2022/06/06 05:45:45;;;;;;;20.40;12.73;;;14.40;99.90;;;;;;4885733;29;20051;-82
2022/06/06 05:48:19;;;;;;;22.13;12.45;;;14.50;99.90;;;;;;4886100;29;20048;-83
2022/06/06 05:51:16;;;;;;;22.52;12.55;;;14.50;99.90;;;;;;4910721;29;20044;-83
2022/06/06 05:54:20;;;;;;;24.45;12.02;;;14.60;99.90;;;;;;4896445;29;20040;-82
2022/06/06 05:57:04;;;;;;;21.77;12.07;;;14.60;99.90;;;;;;4909272;29;20087;-82
2022/06/06 05:59:38;;;;;;;21.10;11.18;;;14.60;99.90;;;;;;4886947;29;20123;-82
2022/06/06 06:02:38;;;;;;;22.77;12.20;;;14.60;99.90;;;;;;4886862;29;20378;-82
2022/06/06 06:05:14;;;;;;;22.17;11.82;;;14.70;99.90;;;;;;4895778;29;20044;-82
2022/06/06 06:07:46;;;;;;;;;;;14.80;99.90;;;;;;4889433;29;20083;-82
2022/06/06 06:10:16;;;;;;;20.80;11.18;;;14.80;99.90;;;;;;4889814;29;19962;-82
2022/06/06 06:12:52;;;;;;;21.20;11.50;;;14.90;99.90;;;;;;4907126;29;20044;-82
2022/06/06 06:15:36;;;;;;;20.98;10.80;;;15.00;99.90;;;;;;4902142;29;20032;-83
2022/06/06 06:18:08;;;;;;;17.13;9.73;;;15.10;99.90;;;;;;4907932;29;20053;-82
2022/06/06 06:20:41;;;;;;;22.52;10.73;;;15.20;99.90;;;;;;4896156;29;20176;-82
2022/06/06 06:23:11;;;;;;;20.13;10.50;;;15.30;99.90;;;;;;4902872;29;20048;-83
2022/06/06 06:25:39;;;;;;;19.55;10.38;;;15.40;99.90;;;;;;4882537;29;20048;-82
2022/06/06 06:28:10;;;;;;;18.13;10.48;;;15.50;99.90;;;;;;4886308;29;20048;-82
2022/06/06 06:31:08;;;;;;;23.42;11.27;;;15.60;99.90;;;;;;4913446;29;20051;-82
2022/06/06 06:33:33;;;;;;;17.77;10.25;;;15.60;99.90;;;;;;4851223;29;20052;-82
2022/06/06 06:36:26;;;;;;;23.90;10.50;;;15.70;99.90;;;;;;4886998;29;20481;-82
2022/06/06 06:39:09;;;;;;;17.33;9.70;;;15.60;99.90;;;;;;4890524;29;20056;-82
2022/06/06 06:41:50;;;;;;;17.13;9.70;;;15.60;99.90;;;;;;4904967;29;20054;-82
2022/06/06 06:44:29;;;;;;;18.50;9.82;;;15.50;99.90;;;;;;4901373;29;20052;-82
2022/06/06 06:46:58;;;;;;;14.95;9.75;;;15.50;99.90;;;;;;4907749;29;20177;-82
2022/06/06 06:49:42;;;;;;;20.45;9.95;;;15.50;99.90;;;;;;4902476;29;20114;-82
2022/06/06 06:52:26;;;;;;;17.63;10.88;;;15.50;99.90;;;;;;4900041;29;20040;-83
2022/06/06 06:55:15;;;;;;;19.75;10.23;;;15.50;99.90;;;;;;4877635;29;20053;-83
2022/06/06 06:57:41;;;;;;;21.30;12.00;;;15.50;99.90;;;;;;4864556;29;20037;-82
2022/06/06 07:00:17;;;;;;;20.63;11.32;;;15.50;99.90;;;;;;4864397;29;20181;-83
2022/06/06 07:08:43;;;;;;;21.35;11.77;;;15.50;99.90;;;;;;4883260;29;20129;-82
2022/06/06 07:11:09;;;;;;;24.63;12.90;;;15.50;99.90;;;;;;4870930;29;20127;-83
2022/06/06 07:14:09;;;;;;;22.63;13.05;;;15.40;99.90;;;;;;4864196;29;20136;-82
2022/06/06 07:16:36;;;;;;;24.90;13.02;;;15.50;99.90;;;;;;4866631;29;20095;-82
2022/06/06 07:19:02;;;;;;;24.67;13.40;;;15.70;99.90;;;;;;4882034;29;20040;-82
2022/06/06 07:21:31;;;;;;;20.60;13.25;;;16.00;99.90;;;;;;4870832;29;20441;-83
2022/06/06 07:24:00;;;;;;;22.75;12.90;;;16.30;99.90;;;;;;4866571;29;20041;-83
2022/06/06 07:26:27;;;;;;;22.98;12.85;;;16.50;99.90;;;;;;4896555;29;20135;-82
2022/06/06 07:28:52;;;;;;;18.92;12.15;;;16.70;99.90;;;;;;4882716;29;20048;-82
2022/06/06 07:31:31;;;;;;;18.58;10.20;;;16.70;99.90;;;;;;4866833;29;20441;-82
2022/06/06 07:34:00;;;;;;;14.43;8.07;;;16.70;99.90;;;;;;4867134;29;20045;-83
2022/06/06 07:36:39;;;;;;;13.88;7.35;;;16.80;99.90;;;;;;4881013;29;20497;-83
2022/06/06 07:39:20;;;;;;;14.18;6.40;;;16.90;99.90;;;;;;4859791;29;20036;-83
2022/06/06 07:42:18;;;;;;;14.32;6.07;;;17.10;99.90;;;;;;4872567;29;20046;-82
2022/06/06 07:45:13;;;;;;;10.70;5.40;;;17.50;99.90;;;;;;4877684;29;20459;-82
2022/06/06 07:48:08;;;;;;;10.55;5.13;;;17.70;99.90;;;;;;4860004;29;20066;-83
2022/06/06 07:50:55;;;;;;;10.02;5.30;;;17.70;99.90;;;;;;4882164;29;20044;-83
2022/06/06 07:53:24;;;;;;;11.65;5.18;;;17.70;99.90;;;;;;4865005;29;20045;-83
2022/06/06 07:56:17;;;;;;;7.00;3.00;;;17.60;99.90;;;;;;4892703;29;20387;-82
2022/06/06 07:59:06;;;;;;;6.03;2.90;;;17.40;99.90;;;;;;4888928;29;20076;-82
2022/06/06 08:02:10;;;;;;;6.40;3.05;;;17.20;99.90;;;;;;4893344;29;20036;-83
2022/06/06 08:04:41;;;;;;;9.73;4.07;;;17.50;99.90;;;;;;4895154;29;20103;-83
2022/06/06 08:07:16;;;;;;;9.65;4.88;;;17.90;99.90;;;;;;4889206;29;20073;-83
2022/06/06 08:09:58;;;;;;;9.95;4.72;;;18.30;99.90;;;;;;4887960;29;20085;-83
2022/06/06 08:12:37;;;;;;;7.38;4.05;;;18.50;99.90;;;;;;4887146;29;20114;-83
2022/06/06 08:15:44;;;;;;;4.63;3.03;;;18.60;99.90;;;;;;4895629;29;20047;-82
2022/06/06 08:18:24;;;;;;;10.13;2.78;;;18.70;99.90;;;;;;4888546;29;20044;-83
2022/06/06 08:21:17;;;;;;;4.80;2.33;;;18.70;99.90;;;;;;4907330;29;20040;-83
2022/06/06 08:23:44;;;;;;;7.13;2.60;;;18.80;99.90;;;;;;4886870;29;20400;-83
2022/06/06 08:26:11;;;;;;;4.15;2.00;;;18.70;99.90;;;;;;4869868;29;20051;-83
2022/06/06 08:28:40;;;;;;;5.43;1.95;;;19.00;99.90;;;;;;4887990;29;20051;-83
2022/06/06 08:31:07;;;;;;;5.13;2.10;;;19.20;99.90;;;;;;4891723;29;20044;-83
2022/06/06 08:33:33;;;;;;;6.15;1.90;;;19.40;99.90;;;;;;4886698;29;20036;-84
2022/06/06 08:36:33;;;;;;;4.60;2.10;;;19.70;99.90;;;;;;4887878;29;20470;-83
2022/06/06 08:39:16;;;;;;;5.70;2.15;;;19.70;99.90;;;;;;4878292;29;20048;-83
2022/06/06 08:41:57;;;;;;;5.55;1.83;;;19.30;99.90;;;;;;4903548;29;20491;-83
2022/06/06 08:44:27;;;;;;;4.10;1.80;;;18.90;99.90;;;;;;4900141;29;20047;-84
2022/06/06 08:47:16;;;;;;;4.88;1.85;;;18.60;99.90;;;;;;4883116;29;20408;-83
2022/06/06 08:53:14;;;;;;;6.75;2.40;;;18.40;99.90;;;;;;4900694;29;20055;-83
2022/06/06 08:55:49;;;;;;;5.22;1.85;;;18.20;99.90;;;;;;4873647;29;20061;-83
2022/06/06 08:58:40;;;;;;;5.20;2.00;;;17.90;99.90;;;;;;4888798;29;20072;-83
2022/06/06 09:01:20;;;;;;;7.50;3.03;;;17.90;99.90;;;;;;4890196;29;20044;-83
2022/06/06 09:03:48;;;;;;;4.85;2.10;;;18.00;99.90;;;;;;4903727;29;20056;-83
2022/06/06 09:06:32;;;;;;;6.05;2.33;;;18.00;99.90;;;;;;4886832;29;20052;-83
2022/06/06 09:09:29;;;;;;;6.72;3.47;;;18.00;99.90;;;;;;4887341;29;20079;-83
2022/06/06 09:12:20;;;;;;;7.53;3.13;;;18.30;99.90;;;;;;4880465;29;20538;-83
2022/06/06 09:15:11;;;;;;;9.40;3.35;;;18.40;99.90;;;;;;4879538;29;20052;-83
2022/06/06 09:17:58;;;;;;;8.98;3.70;;;18.40;99.90;;;;;;4900114;29;20055;-84
2022/06/06 09:20:53;;;;;;;4.45;2.80;;;18.30;99.90;;;;;;4900402;29;20051;-83
2022/06/06 09:23:37;;;;;;;5.30;2.28;;;18.00;99.90;;;;;;4899041;29;20373;-83
2022/06/06 09:26:40;;;;;;;4.38;1.90;;;17.80;99.90;;;;;;4909742;29;20043;-83
2022/06/06 09:29:23;;;;;;;6.93;2.90;;;17.80;99.90;;;;;;4872605;29;20135;-83
2022/06/06 09:32:13;;;;;;;2.92;1.92;;;17.70;99.90;;;;;;4920319;29;20505;-83
2022/06/06 09:34:54;;;;;;;5.30;2.08;;;17.80;99.90;;;;;;4893216;29;20462;-83
2022/06/06 09:37:52;;;;;;;4.07;1.80;;;17.90;99.90;;;;;;4902924;29;20044;-83
2022/06/06 09:40:29;;;;;;;4.50;1.60;;;17.90;99.90;;;;;;4889159;29;20044;-82
2022/06/06 09:43:11;;;;;;;5.05;1.83;;;17.80;99.90;;;;;;4900336;29;20083;-83
2022/06/06 09:45:42;;;;;;;4.03;2.00;;;17.60;99.90;;;;;;4894253;29;20130;-84
2022/06/06 09:48:39;;;;;;;4.85;2.10;;;17.20;99.90;;;;;;4902570;29;20044;-84
2022/06/06 09:51:24;;;;;;;5.70;2.60;;;16.90;99.90;;;;;;4901732;29;20051;-83
2022/06/06 10:00:00;;;;;;;4.00;2.58;;;16.80;99.90;;;;;;4903126;29;20063;-83
2022/06/06 10:02:54;;;;;;;4.30;2.40;;;17.00;99.90;;;;;;4910023;29;20634;-83
2022/06/06 10:05:26;;;;;;;5.70;2.13;;;17.40;99.90;;;;;;4878209;29;20462;-83
2022/06/06 10:08:47;;;;;;;4.03;1.75;;;17.50;99.90;;;;;;4893321;29;20048;-83
2022/06/06 10:11:38;;;;;;;5.20;1.83;;;17.50;99.90;;;;;;4800736;29;20039;-83
2022/06/06 10:14:35;;;;;;;3.75;1.67;;;17.40;99.90;;;;;;4883758;29;20053;-83
2022/06/06 10:17:21;;;;;;;5.70;2.42;;;17.50;99.90;;;;;;4877634;29;20494;-83
2022/06/06 10:20:14;;;;;;;;;;;17.40;99.90;;;;;;4900185;29;20040;-83
2022/06/06 10:22:58;;;;;;;5.32;2.03;;;17.40;99.90;;;;;;4898806;29;20018;-83
2022/06/06 10:25:58;;;;;;;6.35;2.58;;;17.40;99.90;;;;;;4899844;29;20043;-83
2022/06/06 10:28:29;;;;;;;5.10;2.65;;;17.30;99.90;;;;;;4882370;29;20054;-83
2022/06/06 10:31:46;;;;;;;5.35;2.35;;;17.20;99.90;;;;;;4893738;29;20047;-82
2022/06/06 10:34:38;;;;;;;4.10;1.90;;;17.10;99.90;;;;;;4869915;29;20052;-84
2022/06/06 10:37:26;;;;;;;5.28;2.00;;;17.00;99.90;;;;;;4873912;29;20056;-83
2022/06/06 10:39:57;;;;;;;4.00;2.15;;;17.10;99.90;;;;;;4877982;29;20127;-82
2022/06/06 10:42:58;;;;;;;5.97;2.70;;;17.20;99.90;;;;;;4890671;29;20043;-83
2022/06/06 10:45:37;;;;;;;4.80;3.17;;;17.30;99.90;;;;;;4897988;29;20104;-82
2022/06/06 10:48:22;;;;;;;5.68;2.70;;;17.40;99.90;;;;;;4901765;29;20040;-83
2022/06/06 10:53:59;;;;;;;3.25;1.90;;;17.20;99.90;;;;;;4900499;29;20044;-83
2022/06/06 10:56:32;;;;;;;4.70;1.90;;;17.00;99.90;;;;;;4885331;29;20060;-83
2022/06/06 10:59:20;;;;;;;3.05;1.70;;;16.80;99.90;;;;;;4899477;29;20044;-83
2022/06/06 11:02:15;;;;;;;3.67;1.60;;;16.70;99.90;;;;;;4892075;29;20391;-83
2022/06/06 11:05:11;;;;;;;2.33;1.58;;;16.60;99.90;;;;;;4873359;29;20454;-83
2022/06/06 11:08:01;;;;;;;4.28;1.65;;;16.60;99.90;;;;;;4886396;29;20375;-83
2022/06/06 11:10:49;;;;;;;3.13;1.42;;;16.80;99.90;;;;;;4884723;29;20068;-82
2022/06/06 11:13:35;;;;;;;3.70;1.90;;;16.90;99.90;;;;;;4901276;29;20400;-83
2022/06/06 11:16:19;;;;;;;5.43;2.40;;;17.20;99.90;;;;;;4878843;29;20040;-83
2022/06/06 11:19:00;;;;;;;3.65;2.00;;;17.20;99.90;;;;;;4888957;29;20520;-83
2022/06/06 11:21:45;;;;;;;3.70;2.33;;;17.20;99.90;;;;;;4889876;29;20051;-83
2022/06/06 11:24:35;;;;;;;4.85;2.20;;;17.40;99.90;;;;;;4917048;29;20075;-82
2022/06/06 11:27:19;;;;;;;4.72;1.83;;;17.50;99.90;;;;;;4923848;29;20051;-83
2022/06/06 11:29:55;;;;;;;5.00;1.30;;;17.70;99.90;;;;;;4907856;29;20024;-84
2022/06/06 11:32:28;;;;;;;2.72;1.20;;;17.90;99.90;;;;;;4902393;29;20048;-82
2022/06/06 11:34:57;;;;;;;3.72;1.17;;;18.00;99.90;;;;;;4909139;29;20123;-83
2022/06/06 11:37:50;;;;;;;3.08;1.10;;;18.00;99.90;;;;;;4904464;29;20039;-83
2022/06/06 11:40:54;;;;;;;4.30;1.00;;;18.30;99.90;;;;;;4885755;29;20133;-83
2022/06/06 11:43:58;;;;;;;2.38;0.95;;;18.30;99.90;;;;;;4905841;29;20126;-83
2022/06/06 11:46:49;;;;;;;2.78;1.23;;;18.30;99.90;;;;;;4893355;29;20044;-83
2022/06/06 11:49:57;;;;;;;1.83;1.20;;;18.40;99.90;;;;;;4890296;29;20052;-84
2022/06/06 11:52:51;;;;;;;3.15;1.10;;;18.50;99.90;;;;;;4896372;29;20048;-83
2022/06/06 11:56:01;;;;;;;3.78;0.90;;;18.30;99.90;;;;;;4900248;29;20060;-83
2022/06/06 11:58:56;;;;;;;2.17;0.85;;;18.30;99.90;;;;;;4904866;29;20127;-82
2022/06/06 12:02:01;;;;;;;2.17;0.80;;;18.10;99.90;;;;;;4900477;29;20040;-82
2022/06/06 12:04:47;;;;;;;1.27;0.70;;;18.10;99.90;;;;;;4895675;29;20043;-83
2022/06/06 12:07:32;;;;;;;4.28;0.95;;;18.20;99.90;;;;;;4905296;29;20507;-83
2022/06/06 12:10:18;;;;;;;5.70;0.90;;;18.30;99.90;;;;;;4890704;29;20036;-83
2022/06/06 12:13:10;;;;;;;2.70;1.30;;;18.40;99.90;;;;;;4903394;29;20040;-83
2022/06/06 12:16:03;;;;;;;3.42;1.27;;;18.30;99.90;;;;;;4852140;29;20055;-83
2022/06/06 12:18:51;;;;;;;2.85;1.20;;;18.40;99.90;;;;;;4927228;29;20039;-83
2022/06/06 12:21:45;;;;;;;2.83;1.15;;;18.40;99.90;;;;;;4886964;29;20040;-83
2022/06/06 12:24:43;;;;;;;2.92;1.33;;;18.40;99.90;;;;;;4905274;29;20492;-83
2022/06/06 12:27:24;;;;;;;6.20;1.70;;;18.50;99.90;;;;;;4890744;29;20127;-83
2022/06/06 12:30:15;;;;;;;6.47;1.50;;;18.50;99.90;;;;;;4908021;29;20075;-83
2022/06/06 12:33:02;;;;;;;5.13;1.70;;;18.50;99.90;;;;;;4906673;29;20050;-84
2022/06/06 12:35:28;;;;;;;2.65;1.23;;;18.60;99.90;;;;;;4894645;29;20127;-83
2022/06/06 12:38:11;;;;;;;4.78;1.83;;;18.60;99.90;;;;;;4922247;29;20044;-83
2022/06/06 12:41:14;;;;;;;5.15;1.50;;;18.70;99.90;;;;;;4882483;29;20577;-84
2022/06/06 12:43:52;;;;;;;3.58;1.48;;;18.60;99.90;;;;;;4907157;29;20059;-84
2022/06/06 12:46:42;;;;;;;3.13;1.30;;;18.40;99.90;;;;;;4899623;29;20048;-83
2022/06/06 12:49:07;;;;;;;1.67;1.20;;;18.40;99.90;;;;;;4902535;29;20404;-84
2022/06/06 12:51:48;;;;;;;5.13;1.38;;;18.40;99.90;;;;;;4892076;29;20048;-83
2022/06/06 12:57:52;;;;;;;1.90;0.90;;;18.30;99.90;;;;;;4893634;29;20063;-83
2022/06/06 13:03:37;;;;;;;2.22;1.20;;;18.20;99.90;;;;;;4897232;29;20051;-84
2022/06/06 13:06:15;;;;;;;2.70;1.35;;;18.10;99.90;;;;;;4879470;29;20050;-83
2022/06/06 13:09:12;;;;;;;3.22;1.98;;;18.00;99.90;;;;;;4896178;29;20048;-83
2022/06/06 13:11:48;;;;;;;2.78;1.42;;;17.90;99.90;;;;;;4888532;29;20048;-83
2022/06/06 13:14:46;;;;;;;4.93;1.90;;;17.70;99.90;;;;;;4890451;29;20119;-83
2022/06/06 13:17:36;;;;;;;3.83;2.30;;;17.60;99.90;;;;;;4892623;29;20682;-84
2022/06/06 13:20:20;;;;;;;6.30;2.92;;;17.60;99.90;;;;;;4895884;29;20062;-83
2022/06/06 13:22:59;;;;;;;5.25;3.22;;;17.30;99.90;;;;;;4897677;29;20127;-84
2022/06/06 13:25:33;;;;;;;6.22;2.92;;;17.10;99.90;;;;;;4894864;29;20055;-84
2022/06/06 13:28:20;;;;;;;4.28;2.95;;;16.90;99.90;;;;;;4901935;29;20044;-83
2022/06/06 13:30:48;;;;;;;3.92;2.80;;;16.60;99.90;;;;;;4893674;29;20446;-84
2022/06/06 13:33:29;;;;;;;5.63;2.58;;;16.40;99.90;;;;;;4904066;29;20040;-83
2022/06/06 13:35:55;;;;;;;2.92;2.10;;;16.30;99.90;;;;;;4889085;29;20390;-86
2022/06/06 13:38:48;;;;;;;5.32;2.28;;;16.10;99.90;;;;;;4906444;29;20043;-84
2022/06/06 13:41:24;;;;;;;3.88;2.47;;;16.00;99.90;;;;;;4905305;29;20052;-84
2022/06/06 13:43:54;;;;;;;;;;;15.80;99.90;;;;;;4903892;29;20378;-84
2022/06/06 13:46:55;;;;;;;4.70;2.45;;;15.70;99.90;;;;;;4898712;29;19926;-84
2022/06/06 13:49:42;;;;;;;4.63;2.80;;;15.70;99.90;;;;;;4883982;29;20052;-84
2022/06/06 13:52:27;;;;;;;4.13;2.78;;;15.70;99.90;;;;;;4895381;29;20044;-84
2022/06/06 13:54:53;;;;;;;4.38;2.45;;;15.70;99.90;;;;;;4889331;29;20132;-84
2022/06/06 13:57:20;;;;;;;4.90;2.58;;;15.70;99.90;;;;;;4883468;29;20532;-84
2022/06/06 14:00:07;;;;;;;4.25;2.80;;;15.60;99.90;;;;;;4874901;29;20079;-84
2022/06/06 14:03:09;;;;;;;4.85;2.60;;;15.60;99.90;;;;;;4886290;29;20550;-84
2022/06/06 14:05:44;;;;;;;3.88;3.25;;;15.70;99.90;;;;;;4879702;29;20047;-84
2022/06/06 14:08:18;;;;;;;5.60;3.45;;;15.70;99.90;;;;;;4861712;29;20048;-84
2022/06/06 14:10:53;;;;;;;5.07;3.20;;;15.70;99.90;;;;;;4880508;29;20100;-84
2022/06/06 14:13:28;;;;;;;7.63;3.67;;;15.70;99.90;;;;;;4890974;29;20060;-84
2022/06/06 14:15:56;;;;;;;6.55;3.88;;;15.60;99.90;;;;;;4862497;29;20045;-84
2022/06/06 14:18:31;;;;;;;7.22;3.97;;;15.60;99.90;;;;;;4859470;29;20076;-84